Time;durP1;ratioP1;P1;durP2;ratioP2;P2;SDS_P1;SDS_P2;PMS_P1;PMS_P2;Temp;Humidity;BMP_temperature;BMP_pressure;BME280_temperature;BME280_humidity;BME280_pressure;Samples;Min_cycle;Max_cycle;Signal;HPM_P1;HPM_P2
2022/04/14 00:00:55;;;;;;;13.10;8.23;;;11.20;99.90;;;;;;5018397;28;20131;-71
2022/04/14 00:03:21;;;;;;;15.20;8.57;;;11.20;99.90;;;;;;5031067;28;20037;-71
2022/04/14 00:05:47;;;;;;;12.48;8.43;;;11.10;99.90;;;;;;5032711;28;20045;-71
2022/04/14 00:08:13;;;;;;;13.65;8.18;;;11.10;99.90;;;;;;5045839;28;20487;-71
2022/04/14 00:10:38;;;;;;;13.80;9.43;;;11.10;99.90;;;;;;5033938;28;20132;-71
2022/04/14 00:13:04;;;;;;;22.48;9.93;;;11.00;99.90;;;;;;5020183;28;20110;-71
2022/04/14 00:15:30;;;;;;;15.55;10.88;;;11.00;99.90;;;;;;5028984;28;20073;-72
2022/04/14 00:17:55;;;;;;;20.23;10.93;;;10.90;99.90;;;;;;5015291;28;20049;-72
2022/04/14 00:20:22;;;;;;;17.58;11.02;;;10.90;99.90;;;;;;5034329;28;20029;-72
2022/04/14 00:22:47;;;;;;;21.00;11.63;;;10.90;99.90;;;;;;5020238;28;20467;-72
2022/04/14 00:25:13;;;;;;;17.65;11.32;;;10.90;99.90;;;;;;5053871;28;20044;-72
2022/04/14 00:27:39;;;;;;;18.88;12.05;;;10.90;99.90;;;;;;5053669;28;20106;-72
2022/04/14 00:30:06;;;;;;;15.50;12.15;;;10.80;99.90;;;;;;5035010;28;20120;-72
2022/04/14 00:32:31;;;;;;;19.42;11.45;;;10.90;99.90;;;;;;5034904;28;20509;-72
2022/04/14 00:34:58;;;;;;;17.10;11.70;;;10.80;99.90;;;;;;5019594;28;20032;-72
2022/04/14 00:37:23;;;;;;;16.85;12.18;;;10.80;99.90;;;;;;5033947;28;20033;-72
2022/04/14 00:39:50;;;;;;;19.60;13.20;;;10.80;99.90;;;;;;5052768;28;20642;-72
2022/04/14 00:42:16;;;;;;;21.20;12.32;;;10.80;99.90;;;;;;5037117;28;20091;-72
2022/04/14 00:44:42;;;;;;;17.10;12.07;;;10.80;99.90;;;;;;5053200;28;20037;-72
2022/04/14 00:47:10;;;;;;;17.20;12.30;;;10.80;99.90;;;;;;5036023;28;20032;-72
2022/04/14 00:49:36;;;;;;;17.15;12.30;;;10.80;99.90;;;;;;5036961;28;20041;-72
2022/04/14 00:52:03;;;;;;;18.27;12.13;;;10.70;99.90;;;;;;5053977;28;20043;-72
2022/04/14 00:54:30;;;;;;;15.98;11.73;;;10.70;99.90;;;;;;5035884;28;20482;-72
2022/04/14 00:57:00;;;;;;;18.25;12.80;;;10.60;99.90;;;;;;5050642;28;20513;-72
2022/04/14 00:59:26;;;;;;;17.70;12.52;;;10.60;99.90;;;;;;5049370;28;20056;-72
2022/04/14 01:01:54;;;;;;;20.48;13.18;;;10.70;99.90;;;;;;5049052;28;20110;-72
2022/04/14 01:04:20;;;;;;;15.80;13.43;;;10.70;99.90;;;;;;5053493;28;20040;-72
2022/04/14 01:06:46;;;;;;;16.00;11.85;;;10.80;99.90;;;;;;5051197;28;20033;-72
2022/04/14 01:09:19;;;;;;;19.13;12.38;;;10.70;99.90;;;;;;5054903;28;20043;-72
2022/04/14 01:11:50;;;;;;;16.27;12.75;;;10.60;99.90;;;;;;5035817;28;20044;-72
2022/04/14 01:14:25;;;;;;;22.42;12.38;;;10.60;99.90;;;;;;5037285;28;20146;-72
2022/04/14 01:16:50;;;;;;;13.75;11.60;;;10.60;99.90;;;;;;5048660;28;20080;-72
2022/04/14 01:19:16;;;;;;;16.17;12.00;;;10.60;99.90;;;;;;5052613;28;20102;-72
2022/04/14 01:21:46;;;;;;;17.33;13.90;;;10.60;99.90;;;;;;5035594;28;20083;-72
2022/04/14 01:24:14;;;;;;;21.17;13.82;;;10.60;99.90;;;;;;5058016;28;20040;-72
2022/04/14 01:26:40;;;;;;;17.88;13.32;;;10.50;99.90;;;;;;5017308;28;20073;-73
2022/04/14 01:29:06;;;;;;;20.42;13.15;;;10.50;99.90;;;;;;5053173;28;20025;-72
2022/04/14 01:31:32;;;;;;;21.10;13.80;;;10.40;99.90;;;;;;5049566;28;20035;-72
2022/04/14 01:33:57;;;;;;;19.95;14.60;;;10.40;99.90;;;;;;5050303;28;20052;-72
2022/04/14 01:36:23;;;;;;;20.80;14.85;;;10.40;99.90;;;;;;5051772;28;20040;-72
2022/04/14 01:38:49;;;;;;;26.08;15.77;;;10.40;99.90;;;;;;5035075;28;20044;-72
2022/04/14 01:41:15;;;;;;;23.58;16.83;;;10.40;99.90;;;;;;5053377;28;20076;-72
2022/04/14 01:43:43;;;;;;;28.38;16.88;;;10.40;99.90;;;;;;5033971;28;20071;-72
2022/04/14 01:46:08;;;;;;;22.05;16.23;;;10.50;99.90;;;;;;5019385;28;20123;-72
2022/04/14 01:48:34;;;;;;;26.27;17.85;;;10.40;99.90;;;;;;5049808;28;20124;-72
2022/04/14 01:51:00;;;;;;;22.92;16.90;;;10.40;99.90;;;;;;5055867;28;20055;-72
2022/04/14 01:53:26;;;;;;;24.52;17.30;;;10.40;99.90;;;;;;5050050;28;20041;-72
2022/04/14 01:55:52;;;;;;;23.88;18.02;;;10.40;99.90;;;;;;5034385;28;20106;-72
2022/04/14 01:58:17;;;;;;;25.60;17.77;;;10.30;99.90;;;;;;5020489;28;20134;-72
2022/04/14 02:00:43;;;;;;;29.05;19.63;;;10.30;99.90;;;;;;5032560;28;20047;-72
2022/04/14 02:03:08;;;;;;;25.40;17.77;;;10.30;99.90;;;;;;5052079;28;20078;-72
2022/04/14 02:05:34;;;;;;;19.02;13.48;;;10.30;99.90;;;;;;5036281;28;20064;-72
2022/04/14 02:08:00;;;;;;;16.50;13.38;;;10.30;99.90;;;;;;5050539;28;20029;-72
2022/04/14 02:10:26;;;;;;;17.05;12.70;;;10.20;99.90;;;;;;5049846;28;20040;-72
2022/04/14 02:12:51;;;;;;;21.33;14.02;;;10.20;99.90;;;;;;5018818;28;20128;-72
2022/04/14 02:15:18;;;;;;;18.80;14.85;;;10.10;99.90;;;;;;5034929;28;20041;-72
2022/04/14 02:17:44;;;;;;;19.77;13.25;;;10.10;99.90;;;;;;5051648;28;20048;-72
2022/04/14 02:20:10;;;;;;;18.00;13.68;;;10.00;99.90;;;;;;5051934;28;20106;-72
2022/04/14 02:22:40;;;;;;;18.10;14.35;;;10.00;99.90;;;;;;5051516;28;20028;-72
2022/04/14 02:25:06;;;;;;;18.75;12.45;;;10.00;99.90;;;;;;5019386;28;20037;-72
2022/04/14 02:27:32;;;;;;;22.00;16.13;;;9.90;99.90;;;;;;5017446;28;20045;-72
2022/04/14 02:29:57;;;;;;;21.45;17.55;;;9.90;99.90;;;;;;5050791;28;20110;-72
2022/04/14 02:32:23;;;;;;;25.42;17.42;;;9.90;99.90;;;;;;5032729;28;20041;-71
2022/04/14 02:34:48;;;;;;;21.30;15.75;;;9.90;99.90;;;;;;5029749;28;20041;-71
2022/04/14 02:37:14;;;;;;;20.10;15.63;;;9.90;99.90;;;;;;5029090;28;20041;-71
2022/04/14 02:39:40;;;;;;;18.58;13.55;;;9.80;99.90;;;;;;5048635;28;20482;-71
2022/04/14 02:42:05;;;;;;;26.42;18.17;;;9.80;99.90;;;;;;5015343;28;20037;-73
2022/04/14 02:44:31;;;;;;;25.45;19.92;;;9.80;99.90;;;;;;5032730;28;20490;-73
2022/04/14 02:46:57;;;;;;;27.90;18.52;;;9.80;99.90;;;;;;5036900;28;20044;-73
2022/04/14 02:49:23;;;;;;;21.63;15.65;;;9.70;99.90;;;;;;5033318;28;20587;-73
2022/04/14 02:51:49;;;;;;;25.13;18.50;;;9.80;99.90;;;;;;5053567;28;20084;-73
2022/04/14 02:54:15;;;;;;;23.70;17.88;;;9.70;99.90;;;;;;5053332;28;20033;-73
2022/04/14 02:56:40;;;;;;;25.38;17.67;;;9.70;99.90;;;;;;5036895;28;20555;-73
2022/04/14 02:59:06;;;;;;;23.65;17.92;;;9.70;99.90;;;;;;5033795;28;20040;-73
2022/04/14 03:01:32;;;;;;;23.52;16.95;;;9.70;99.90;;;;;;5032869;28;20495;-72
2022/04/14 03:03:57;;;;;;;24.95;18.63;;;9.70;99.90;;;;;;5033186;28;20047;-73
2022/04/14 03:06:23;;;;;;;23.98;16.92;;;9.60;99.90;;;;;;5032683;28;20490;-72
2022/04/14 03:08:49;;;;;;;21.67;18.20;;;9.60;99.90;;;;;;5035240;28;20036;-73
2022/04/14 03:11:14;;;;;;;32.67;20.80;;;9.60;99.90;;;;;;5034038;28;20037;-72
2022/04/14 03:13:42;;;;;;;28.15;21.02;;;9.60;99.90;;;;;;5034688;28;20119;-73
2022/04/14 03:16:08;;;;;;;33.45;22.17;;;9.60;99.90;;;;;;5020196;28;20146;-73
2022/04/14 03:18:33;;;;;;;36.78;23.45;;;9.50;99.90;;;;;;5049177;28;20041;-73
2022/04/14 03:21:00;;;;;;;33.28;23.83;;;9.50;99.90;;;;;;5034957;28;20487;-73
2022/04/14 03:23:26;;;;;;;33.95;24.38;;;9.50;99.90;;;;;;5051334;28;20033;-73
2022/04/14 03:25:52;;;;;;;39.17;26.70;;;9.50;99.90;;;;;;5034375;28;20453;-72
2022/04/14 03:28:17;;;;;;;36.92;26.67;;;9.50;99.90;;;;;;5034369;28;20041;-73
2022/04/14 03:30:43;;;;;;;36.92;26.33;;;9.50;99.90;;;;;;5031744;28;20515;-73
2022/04/14 03:33:09;;;;;;;33.63;25.33;;;9.50;99.90;;;;;;5034446;28;20088;-72
2022/04/14 03:35:34;;;;;;;33.75;25.70;;;9.50;99.90;;;;;;5038082;28;20496;-72
2022/04/14 03:38:00;;;;;;;36.15;24.52;;;9.60;99.90;;;;;;5035135;28;20454;-73
2022/04/14 03:40:26;;;;;;;33.90;23.48;;;9.50;99.90;;;;;;5032245;28;20540;-73
2022/04/14 03:42:51;;;;;;;35.17;26.40;;;9.50;99.90;;;;;;5034639;28;20064;-73
2022/04/14 03:45:17;;;;;;;36.67;25.58;;;9.40;99.90;;;;;;5036443;28;20390;-73
2022/04/14 03:47:42;;;;;;;37.10;27.13;;;9.40;99.90;;;;;;5018849;28;20039;-73
2022/04/14 03:50:08;;;;;;;33.92;25.38;;;9.40;99.90;;;;;;5031550;28;20196;-73
2022/04/14 03:52:34;;;;;;;39.60;28.65;;;9.40;99.90;;;;;;5034615;28;20040;-73
2022/04/14 03:54:59;;;;;;;41.13;29.27;;;9.40;99.90;;;;;;5033043;28;20120;-72
2022/04/14 03:57:25;;;;;;;40.17;29.15;;;9.40;99.90;;;;;;5050617;28;20414;-72
2022/04/14 03:59:51;;;;;;;39.78;28.20;;;9.40;99.90;;;;;;5033051;28;20032;-72
2022/04/14 04:02:17;;;;;;;38.72;27.35;;;9.40;99.90;;;;;;5035018;28;20116;-70
2022/04/14 04:04:43;;;;;;;42.05;27.60;;;9.40;99.90;;;;;;5049980;28;20033;-72
2022/04/14 04:07:08;;;;;;;42.10;28.65;;;9.30;99.90;;;;;;5052247;28;20344;-71
2022/04/14 04:09:34;;;;;;;36.80;25.40;;;9.30;99.90;;;;;;5051417;28;20063;-73
2022/04/14 04:12:01;;;;;;;37.72;26.17;;;9.30;99.90;;;;;;5050979;28;20514;-72
2022/04/14 04:14:27;;;;;;;39.67;28.38;;;9.30;99.90;;;;;;5036534;28;20429;-72
2022/04/14 04:16:52;;;;;;;40.80;26.50;;;9.30;99.90;;;;;;5051313;28;20041;-72
2022/04/14 04:19:18;;;;;;;40.78;18.55;;;9.30;99.90;;;;;;5030144;28;20037;-73
2022/04/14 04:21:44;;;;;;;26.55;20.00;;;9.20;99.90;;;;;;5032334;28;20033;-72
2022/04/14 04:24:09;;;;;;;65.70;24.33;;;9.20;99.90;;;;;;5014727;28;20093;-72
2022/04/14 04:26:35;;;;;;;352.80;23.63;;;9.20;99.90;;;;;;5031777;28;20033;-72
2022/04/14 04:29:01;;;;;;;131.18;18.25;;;9.10;99.90;;;;;;5033011;28;20033;-72
2022/04/14 04:31:26;;;;;;;20.55;14.52;;;9.00;99.90;;;;;;5051694;28;20068;-72
2022/04/14 04:33:53;;;;;;;121.85;16.02;;;8.90;99.90;;;;;;5031654;28;20041;-72
2022/04/14 04:36:19;;;;;;;33.05;21.35;;;8.80;99.90;;;;;;5033615;28;20497;-72
2022/04/14 04:38:44;;;;;;;29.83;19.52;;;8.80;99.90;;;;;;5029656;28;20046;-73
2022/04/14 04:41:10;;;;;;;29.20;19.63;;;8.70;99.90;;;;;;5037788;28;20036;-73
2022/04/14 04:43:36;;;;;;;39.85;24.80;;;8.70;99.90;;;;;;5030302;28;20052;-73
2022/04/14 04:46:02;;;;;;;29.25;22.08;;;8.70;99.90;;;;;;5034389;28;20072;-72
2022/04/14 04:48:27;;;;;;;34.97;25.52;;;8.70;99.90;;;;;;5018852;28;20044;-72
2022/04/14 04:50:53;;;;;;;43.88;26.67;;;8.60;99.90;;;;;;5030935;28;20036;-72
2022/04/14 04:53:19;;;;;;;38.95;25.20;;;8.60;99.90;;;;;;5031862;28;20099;-72
2022/04/14 04:55:45;;;;;;;43.55;27.08;;;8.70;99.90;;;;;;5032450;28;20561;-72
2022/04/14 04:58:11;;;;;;;50.25;27.13;;;8.70;99.90;;;;;;5030640;28;20570;-73
2022/04/14 05:00:36;;;;;;;42.20;23.20;;;8.70;99.90;;;;;;5013763;28;20049;-72
2022/04/14 05:03:10;;;;;;;189.80;22.52;;;8.70;99.90;;;;;;5032967;28;20044;-72
2022/04/14 05:05:37;;;;;;;51.63;20.95;;;8.60;99.90;;;;;;5049072;28;20403;-73
2022/04/14 05:08:04;;;;;;;128.57;23.05;;;8.40;99.90;;;;;;5046795;28;20032;-72
2022/04/14 05:10:29;;;;;;;57.03;29.77;;;8.40;99.90;;;;;;5048091;28;20037;-72
2022/04/14 05:12:55;;;;;;;61.03;34.50;;;8.40;99.90;;;;;;5048748;28;20025;-72
2022/04/14 05:15:21;;;;;;;57.45;27.13;;;8.50;99.90;;;;;;5029930;28;20036;-72
2022/04/14 05:17:47;;;;;;;66.07;28.30;;;8.50;99.90;;;;;;5033254;28;20064;-72
2022/04/14 05:20:13;;;;;;;44.55;25.95;;;8.40;99.90;;;;;;5033265;28;20075;-72
2022/04/14 05:22:38;;;;;;;45.08;27.25;;;8.40;99.90;;;;;;5045200;28;20511;-73
2022/04/14 05:25:05;;;;;;;52.65;32.70;;;8.40;99.90;;;;;;5049388;28;20490;-72
2022/04/14 05:27:30;;;;;;;55.67;35.15;;;8.40;99.90;;;;;;5031382;28;20069;-72
2022/04/14 05:29:56;;;;;;;78.05;41.20;;;8.50;99.90;;;;;;5029748;28;20084;-72
2022/04/14 05:32:21;;;;;;;69.35;38.60;;;8.50;99.90;;;;;;5027318;28;20067;-72
2022/04/14 05:34:47;;;;;;;64.25;35.58;;;8.60;99.90;;;;;;5029818;28;20076;-72
2022/04/14 05:37:13;;;;;;;41.70;28.88;;;8.60;99.90;;;;;;5031466;28;20430;-72
2022/04/14 05:39:38;;;;;;;226.38;26.58;;;8.60;99.90;;;;;;5032898;28;20033;-73
2022/04/14 05:42:04;;;;;;;63.35;27.73;;;8.60;99.90;;;;;;5032529;28;20591;-73
2022/04/14 05:44:32;;;;;;;40.50;27.63;;;8.60;99.90;;;;;;5029511;28;20037;-72
2022/04/14 05:46:58;;;;;;;38.63;27.02;;;8.50;99.90;;;;;;5015618;28;20041;-72
2022/04/14 05:49:23;;;;;;;57.55;33.38;;;8.50;99.90;;;;;;5031810;28;20051;-72
2022/04/14 05:51:49;;;;;;;62.13;36.90;;;8.60;99.90;;;;;;5014281;28;20047;-73
2022/04/14 05:54:15;;;;;;;61.28;36.63;;;8.60;99.90;;;;;;5052426;28;20032;-72
2022/04/14 05:56:41;;;;;;;64.53;39.67;;;8.60;99.90;;;;;;5026698;28;20102;-72
2022/04/14 05:59:15;;;;;;;71.47;42.30;;;8.70;99.90;;;;;;5032775;28;20037;-73
2022/04/14 06:01:41;;;;;;;75.07;42.60;;;8.80;99.90;;;;;;5031225;28;20041;-72
2022/04/14 06:04:07;;;;;;;71.43;42.85;;;8.80;99.90;;;;;;5031518;28;20076;-73
2022/04/14 06:06:33;;;;;;;73.50;43.08;;;8.90;99.90;;;;;;5038315;28;20048;-73
2022/04/14 06:08:58;;;;;;;76.03;43.85;;;9.00;99.90;;;;;;5033385;28;20102;-73
2022/04/14 06:11:25;;;;;;;79.32;44.80;;;9.00;99.90;;;;;;5049619;28;20457;-73
2022/04/14 06:13:51;;;;;;;74.68;46.17;;;9.10;99.90;;;;;;5032459;28;20052;-73
2022/04/14 06:16:17;;;;;;;79.05;45.80;;;9.10;99.90;;;;;;5032748;28;20045;-73
2022/04/14 06:18:42;;;;;;;88.00;48.83;;;9.20;99.90;;;;;;5030436;28;20066;-73
2022/04/14 06:21:08;;;;;;;90.68;52.67;;;9.30;99.90;;;;;;5031051;28;20395;-73
2022/04/14 06:23:33;;;;;;;91.20;50.80;;;9.40;99.90;;;;;;5031143;28;20032;-73
2022/04/14 06:25:59;;;;;;;87.78;52.47;;;9.50;99.90;;;;;;5035088;28;20079;-73
2022/04/14 06:28:25;;;;;;;96.25;56.10;;;9.60;99.90;;;;;;5017645;28;20487;-73
2022/04/14 06:30:51;;;;;;;98.43;54.83;;;9.70;99.90;;;;;;5051295;28;20040;-73
2022/04/14 06:33:18;;;;;;;92.13;53.92;;;9.80;99.90;;;;;;5032232;28;20033;-72
2022/04/14 06:35:44;;;;;;;87.07;53.45;;;10.00;99.90;;;;;;5032805;28;20048;-73
2022/04/14 06:38:10;;;;;;;82.45;51.15;;;10.10;99.90;;;;;;5024844;28;20041;-73
2022/04/14 06:40:35;;;;;;;83.68;49.53;;;10.10;99.90;;;;;;5032632;28;20037;-73
2022/04/14 06:43:02;;;;;;;85.00;51.25;;;10.20;99.90;;;;;;5032611;28;20122;-73
2022/04/14 06:45:28;;;;;;;88.07;50.30;;;10.30;99.90;;;;;;5031970;28;20056;-73
2022/04/14 06:47:53;;;;;;;78.65;49.28;;;10.40;99.90;;;;;;5032150;28;20063;-73
2022/04/14 06:50:19;;;;;;;74.28;47.05;;;10.50;99.90;;;;;;5050246;28;20045;-73
2022/04/14 06:52:45;;;;;;;69.70;45.03;;;10.50;99.90;;;;;;5015858;28;20037;-73
2022/04/14 06:55:11;;;;;;;68.28;44.00;;;10.70;99.90;;;;;;5027257;28;20041;-73
2022/04/14 06:57:36;;;;;;;68.03;43.25;;;10.70;99.90;;;;;;5048530;28;20064;-73
2022/04/14 07:00:04;;;;;;;65.25;41.70;;;10.80;99.90;;;;;;5048257;28;20107;-73
2022/04/14 07:02:31;;;;;;;60.88;41.78;;;10.90;99.90;;;;;;5047220;28;20045;-73
2022/04/14 07:04:59;;;;;;;61.10;40.03;;;11.00;99.90;;;;;;5031354;28;20075;-73
2022/04/14 07:07:25;;;;;;;56.83;38.63;;;11.10;99.90;;;;;;5027481;28;20056;-73
2022/04/14 07:09:50;;;;;;;56.70;37.58;;;11.20;99.90;;;;;;5033187;28;20037;-73
2022/04/14 07:12:16;;;;;;;59.00;38.58;;;11.30;99.90;;;;;;5030442;28;20074;-73
2022/04/14 07:14:42;;;;;;;53.65;36.33;;;11.40;99.90;;;;;;5048538;28;20085;-72
2022/04/14 07:17:08;;;;;;;50.25;34.22;;;11.50;99.90;;;;;;5050236;28;20063;-72
2022/04/14 07:19:34;;;;;;;46.08;33.53;;;11.60;99.90;;;;;;5029212;28;20033;-73
2022/04/14 07:22:00;;;;;;;51.70;35.85;;;11.70;99.90;;;;;;5034116;28;20045;-74
2022/04/14 07:24:25;;;;;;;47.67;33.88;;;11.80;99.90;;;;;;5031776;28;20033;-72
2022/04/14 07:26:51;;;;;;;48.40;34.35;;;11.80;99.90;;;;;;5032262;28;20577;-72
2022/04/14 07:29:17;;;;;;;49.65;33.03;;;12.00;99.90;;;;;;5045487;28;20032;-72
2022/04/14 07:31:42;;;;;;;45.72;33.40;;;12.10;99.90;;;;;;5033464;28;20033;-72
2022/04/14 07:34:10;;;;;;;41.55;30.35;;;12.20;99.90;;;;;;5054314;28;20086;-72
2022/04/14 07:36:36;;;;;;;39.35;28.85;;;12.30;99.90;;;;;;5054857;28;20033;-72
2022/04/14 07:39:03;;;;;;;38.85;26.60;;;12.50;99.90;;;;;;5036758;28;20044;-72
2022/04/14 07:41:29;;;;;;;37.03;26.42;;;12.60;99.90;;;;;;5055362;28;20398;-72
2022/04/14 07:43:56;;;;;;;39.92;28.52;;;12.70;99.90;;;;;;5053142;28;20037;-72
2022/04/14 07:46:22;;;;;;;40.15;29.00;;;12.80;99.90;;;;;;5035362;28;20148;-72
2022/04/14 07:48:48;;;;;;;34.95;26.00;;;12.90;99.90;;;;;;5041474;28;20066;-72
2022/04/14 07:51:13;;;;;;;36.78;25.60;;;13.00;99.90;;;;;;5034972;28;20120;-72
2022/04/14 07:53:39;;;;;;;24.02;19.92;;;13.10;99.90;;;;;;5035948;28;20154;-72
2022/04/14 07:56:05;;;;;;;30.17;21.08;;;13.30;99.90;;;;;;5036186;28;20091;-72
2022/04/14 07:58:31;;;;;;;25.75;19.25;;;13.40;99.90;;;;;;5035499;28;20044;-72
2022/04/14 08:00:57;;;;;;;26.70;19.20;;;13.50;99.90;;;;;;5035162;28;20395;-72
2022/04/14 08:03:22;;;;;;;23.02;17.60;;;13.60;99.90;;;;;;5034991;28;20174;-72
2022/04/14 08:05:48;;;;;;;18.45;14.95;;;13.60;99.90;;;;;;5039157;28;20124;-72
2022/04/14 08:08:19;;;;;;;18.90;14.30;;;13.80;99.90;;;;;;5036318;28;20037;-72
2022/04/14 08:10:48;;;;;;;17.75;14.02;;;13.90;99.90;;;;;;5035021;28;20048;-72
2022/04/14 08:13:14;;;;;;;15.70;11.80;;;14.10;99.90;;;;;;5035763;28;20568;-72
2022/04/14 08:15:40;;;;;;;14.50;12.40;;;14.20;99.90;;;;;;5035258;28;20091;-72
2022/04/14 08:18:07;;;;;;;18.40;14.05;;;14.30;99.90;;;;;;5035559;28;20033;-72
2022/04/14 08:20:34;;;;;;;19.25;14.30;;;14.40;99.90;;;;;;5030638;28;20081;-72
2022/04/14 08:23:02;;;;;;;16.52;14.43;;;14.60;99.90;;;;;;5035313;28;20045;-72
2022/04/14 08:25:33;;;;;;;15.50;13.13;;;14.70;99.90;;;;;;5034878;28;20051;-72
2022/04/14 08:28:00;;;;;;;19.23;13.45;;;14.80;99.90;;;;;;5053358;28;20043;-72
2022/04/14 08:30:28;;;;;;;18.90;13.30;;;14.90;99.90;;;;;;5038884;28;20041;-72
2022/04/14 08:32:55;;;;;;;17.40;13.88;;;15.00;99.90;;;;;;5053073;28;20044;-72
2022/04/14 08:35:21;;;;;;;18.45;14.25;;;15.10;99.90;;;;;;5035841;28;20028;-73
2022/04/14 08:37:48;;;;;;;17.23;13.75;;;15.20;99.90;;;;;;5038824;28;20072;-72
2022/04/14 08:40:16;;;;;;;18.85;14.80;;;15.40;99.90;;;;;;5034121;28;20041;-72
2022/04/14 08:43:08;;;;;;;21.40;16.20;;;15.50;99.90;;;;;;5052190;28;20033;-72
2022/04/14 08:45:44;;;;;;;22.25;14.02;;;15.50;99.90;;;;;;5033118;28;20086;-72
2022/04/14 08:48:12;;;;;;;17.65;14.20;;;15.60;99.90;;;;;;5031834;28;20076;-72
2022/04/14 08:50:38;;;;;;;16.45;13.82;;;15.70;99.90;;;;;;5048206;28;20047;-72
2022/04/14 08:53:07;;;;;;;17.13;13.27;;;15.80;99.90;;;;;;5036541;28;20045;-72
2022/04/14 08:55:34;;;;;;;17.88;13.13;;;16.00;99.90;;;;;;5034860;28;20080;-72
2022/04/14 08:58:00;;;;;;;15.88;13.00;;;16.10;99.90;;;;;;5034853;28;20098;-72
2022/04/14 09:00:27;;;;;;;16.63;14.00;;;16.20;99.90;;;;;;5037163;28;20040;-72
2022/04/14 09:02:55;;;;;;;16.85;13.63;;;16.30;99.90;;;;;;5036966;28;20044;-72
2022/04/14 09:05:21;;;;;;;18.17;14.38;;;16.40;99.90;;;;;;5052820;28;20128;-72
2022/04/14 09:07:50;;;;;;;17.95;15.23;;;16.60;99.90;;;;;;5039056;28;20123;-72
2022/04/14 09:10:18;;;;;;;19.58;15.23;;;16.60;99.90;;;;;;5054512;28;20063;-72
2022/04/14 09:12:44;;;;;;;19.00;15.32;;;16.60;99.90;;;;;;5051884;28;20048;-72
2022/04/14 09:15:10;;;;;;;19.42;15.95;;;16.40;99.90;;;;;;5033981;28;20069;-72
2022/04/14 09:17:36;;;;;;;23.40;16.80;;;16.60;99.90;;;;;;5034147;28;20037;-72
2022/04/14 09:20:31;;;;;;;19.30;15.50;;;16.60;99.90;;;;;;5037224;28;20032;-72
2022/04/14 09:23:18;;;;;;;18.90;15.52;;;16.50;99.90;;;;;;5032382;28;20047;-72
2022/04/14 09:25:44;;;;;;;19.65;15.60;;;16.80;99.90;;;;;;5034306;28;20132;-72
2022/04/14 09:28:15;;;;;;;19.20;16.05;;;16.90;99.90;;;;;;5051938;28;20124;-72
2022/04/14 09:30:57;;;;;;;20.02;15.27;;;17.00;99.90;;;;;;5049012;28;20036;-72
2022/04/14 09:33:23;;;;;;;20.63;15.77;;;17.20;99.90;;;;;;5033846;28;20041;-72
2022/04/14 09:36:09;;;;;;;20.60;15.48;;;17.40;99.90;;;;;;5034156;28;20127;-72
2022/04/14 09:38:58;;;;;;;19.20;15.35;;;17.60;99.90;;;;;;5052749;28;20036;-72
2022/04/14 09:41:29;;;;;;;21.52;16.73;;;17.90;99.90;;;;;;5032030;28;20041;-72
2022/04/14 09:43:56;;;;;;;22.60;17.02;;;18.00;99.90;;;;;;5034415;28;20041;-72
2022/04/14 09:46:21;;;;;;;23.10;16.83;;;18.10;99.90;;;;;;5051613;28;20037;-72
2022/04/14 09:49:05;;;;;;;22.92;16.52;;;18.10;99.90;;;;;;5033182;28;20045;-72
2022/04/14 09:51:32;;;;;;;23.80;18.30;;;18.00;99.90;;;;;;5033446;28;20095;-72
2022/04/14 09:54:12;;;;;;;21.95;18.95;;;18.10;99.90;;;;;;5050898;28;20028;-72
2022/04/14 09:56:51;;;;;;;22.00;17.60;;;17.90;99.90;;;;;;5053127;28;20037;-72
2022/04/14 09:59:18;;;;;;;23.45;18.48;;;17.70;99.90;;;;;;5016598;28;20396;-72
2022/04/14 10:01:45;;;;;;;27.70;20.30;;;17.80;99.90;;;;;;5029028;28;20395;-72
2022/04/14 10:04:33;;;;;;;24.85;17.92;;;17.80;99.90;;;;;;5033778;28;20106;-72
2022/04/14 10:07:10;;;;;;;21.05;16.20;;;17.80;99.90;;;;;;5036969;28;20037;-72
2022/04/14 10:09:41;;;;;;;26.85;19.55;;;17.90;99.90;;;;;;5035432;28;20075;-73
2022/04/14 10:12:19;;;;;;;21.25;16.75;;;18.00;99.90;;;;;;5050600;28;20037;-73
2022/04/14 10:14:56;;;;;;;20.23;15.77;;;18.20;99.90;;;;;;5031393;28;20037;-73
2022/04/14 10:17:26;;;;;;;20.63;15.55;;;18.40;99.90;;;;;;5033223;28;20139;-73
2022/04/14 10:19:52;;;;;;;18.73;14.57;;;18.50;99.40;;;;;;5051137;28;20033;-73
2022/04/14 10:22:19;;;;;;;19.88;14.65;;;18.80;99.90;;;;;;5033393;28;20128;-72
2022/04/14 10:24:45;;;;;;;15.52;13.88;;;18.90;99.90;;;;;;5033934;28;20068;-72
2022/04/14 10:27:13;;;;;;;12.60;10.52;;;18.80;99.90;;;;;;5051577;28;20044;-72
2022/04/14 10:29:41;;;;;;;10.70;8.77;;;18.90;99.90;;;;;;5052101;28;20048;-72
2022/04/14 10:32:07;;;;;;;11.23;9.40;;;18.80;99.60;;;;;;5036962;28;20044;-72
2022/04/14 10:34:34;;;;;;;8.13;6.97;;;18.90;99.90;;;;;;5050832;28;20033;-72
2022/04/14 10:37:02;;;;;;;9.65;7.00;;;18.70;96.50;;;;;;5033049;28;20049;-72
2022/04/14 10:39:29;;;;;;;8.70;6.65;;;18.60;97.80;;;;;;5050278;28;20029;-72
2022/04/14 10:41:56;;;;;;;8.50;6.38;;;18.60;97.40;;;;;;5033212;28;20037;-72
2022/04/14 10:44:22;;;;;;;6.82;5.95;;;18.60;98.20;;;;;;5033164;28;20041;-72
2022/04/14 10:46:50;;;;;;;7.13;6.00;;;18.40;97.60;;;;;;5034567;28;20051;-72
2022/04/14 10:49:21;;;;;;;7.85;5.60;;;18.20;94.30;;;;;;5033397;28;20484;-71
2022/04/14 10:51:50;;;;;;;7.63;5.82;;;18.30;99.00;;;;;;5047204;28;20052;-72
2022/04/14 10:54:18;;;;;;;10.80;5.80;;;18.40;98.20;;;;;;5048033;28;20033;-72
2022/04/14 10:56:46;;;;;;;8.05;6.05;;;18.60;94.90;;;;;;5032297;28;20048;-71
2022/04/14 10:59:44;;;;;;;8.27;6.28;;;18.70;96.20;;;;;;5032722;28;20033;-72
2022/04/14 11:02:10;;;;;;;7.00;4.93;;;19.00;96.80;;;;;;5033157;28;20055;-72
2022/04/14 11:04:41;;;;;;;7.68;6.00;;;19.20;95.40;;;;;;5034532;28;20048;-71
2022/04/14 11:07:22;;;;;;;9.95;6.28;;;19.20;94.80;;;;;;5029315;28;20037;-71
2022/04/14 11:09:58;;;;;;;7.53;5.25;;;18.90;91.90;;;;;;5035653;28;20064;-71
2022/04/14 11:12:41;;;;;;;6.30;4.18;;;18.90;95.70;;;;;;5036465;28;20053;-72
2022/04/14 11:15:10;;;;;;;4.60;2.70;;;19.00;94.00;;;;;;5035065;28;20048;-71
2022/04/14 11:20:19;;;;;;;5.20;3.05;;;19.20;80.90;;;;;;5036581;28;20471;-72
2022/04/14 11:23:15;;;;;;;3.92;3.13;;;19.30;90.00;;;;;;5042747;28;20043;-71
2022/04/14 11:25:41;;;;;;;7.22;4.35;;;19.50;89.40;;;;;;5032044;28;20049;-71
2022/04/14 11:28:25;;;;;;;5.30;4.35;;;19.50;82.80;;;;;;5033575;28;20040;-72
2022/04/14 11:30:56;;;;;;;9.00;4.00;;;19.90;90.40;;;;;;5034300;28;20041;-72
2022/04/14 11:33:25;;;;;;;5.75;4.47;;;19.90;80.70;;;;;;5036135;28;20045;-71
2022/04/14 11:35:51;;;;;;;7.32;4.78;;;19.50;82.00;;;;;;5035536;28;20052;-72
2022/04/14 11:38:52;;;;;;;6.18;5.22;;;19.30;89.50;;;;;;5036590;28;20048;-72
2022/04/14 11:41:35;;;;;;;8.55;5.88;;;19.40;92.90;;;;;;5035275;28;20044;-71
2022/04/14 11:44:19;;;;;;;9.07;5.82;;;19.40;93.10;;;;;;5035544;28;20037;-72
2022/04/14 11:46:50;;;;;;;7.50;4.80;;;19.60;93.10;;;;;;5037488;28;20090;-72
2022/04/14 11:49:23;;;;;;;8.43;4.22;;;19.20;92.10;;;;;;5039592;28;20041;-72
2022/04/14 11:51:51;;;;;;;8.68;4.78;;;19.10;93.10;;;;;;5053030;28;20039;-72
2022/04/14 11:54:35;;;;;;;6.25;4.85;;;19.40;92.30;;;;;;5055403;28;20063;-72
2022/04/14 11:57:12;;;;;;;10.35;4.82;;;19.50;88.10;;;;;;5033671;28;20047;-72
2022/04/14 11:59:46;;;;;;;8.10;5.10;;;19.80;91.70;;;;;;5037920;28;20036;-72
2022/04/14 12:02:15;;;;;;;6.97;4.90;;;19.80;79.60;;;;;;5035065;28;20041;-72
2022/04/14 12:04:49;;;;;;;7.93;4.63;;;19.80;85.20;;;;;;5036680;28;20033;-72
2022/04/14 12:07:17;;;;;;;6.18;3.97;;;19.80;85.40;;;;;;5040298;28;20056;-72
2022/04/14 12:09:43;;;;;;;5.38;3.90;;;20.00;86.30;;;;;;5053239;28;20429;-72
2022/04/14 12:12:16;;;;;;;7.82;3.60;;;20.50;86.30;;;;;;5035006;28;20029;-72
2022/04/14 12:14:51;;;;;;;8.07;3.90;;;20.70;84.30;;;;;;5037206;28;20041;-72
2022/04/14 12:17:21;;;;;;;5.75;3.22;;;20.80;78.70;;;;;;5036166;28;20075;-72
2022/04/14 12:19:56;;;;;;;6.80;3.10;;;21.00;80.60;;;;;;5034943;28;20083;-72
2022/04/14 12:22:24;;;;;;;4.70;2.80;;;21.20;74.10;;;;;;5035000;28;20049;-72
2022/04/14 12:24:58;;;;;;;6.40;2.60;;;21.20;72.00;;;;;;5043504;28;20037;-72
2022/04/14 12:27:27;;;;;;;6.25;3.13;;;21.20;71.00;;;;;;5034159;28;20048;-72
2022/04/14 12:30:02;;;;;;;6.10;2.92;;;20.60;73.20;;;;;;5035940;28;20040;-72
2022/04/14 12:32:28;;;;;;;7.10;2.78;;;20.40;76.70;;;;;;5030479;28;20072;-72
2022/04/14 12:34:55;;;;;;;5.40;2.55;;;20.40;73.00;;;;;;5050479;28;20052;-72
2022/04/14 12:37:20;;;;;;;5.22;2.90;;;20.10;74.60;;;;;;5052514;28;20121;-73
2022/04/14 12:39:59;;;;;;;6.53;3.08;;;20.10;77.50;;;;;;5052335;28;20076;-73